Time;durP1;ratioP1;P1;durP2;ratioP2;P2;SDS_P1;SDS_P2;PMS_P1;PMS_P2;Temp;Humidity;BMP_temperature;BMP_pressure;BME280_temperature;BME280_humidity;BME280_pressure;Samples;Min_cycle;Max_cycle;Signal;HPM_P1;HPM_P2
2022/07/17 00:01:57;;;;;;;4.25;1.60;;;11.80;94.60;;;;;;4971220;28;20184;-76
2022/07/17 00:04:23;;;;;;;2.88;1.73;;;11.60;95.40;;;;;;4970665;28;20267;-76
2022/07/17 00:06:48;;;;;;;5.05;1.70;;;11.60;95.90;;;;;;4971850;28;20181;-76
2022/07/17 00:09:40;;;;;;;1.92;1.42;;;11.60;96.20;;;;;;4973805;28;20189;-76
2022/07/17 00:12:07;;;;;;;2.15;1.70;;;11.60;96.30;;;;;;4973738;28;20170;-76
2022/07/17 00:15:11;;;;;;;5.43;1.70;;;11.70;96.60;;;;;;4973699;28;20659;-76
2022/07/17 00:17:36;;;;;;;3.65;1.50;;;11.70;96.40;;;;;;4974650;28;20176;-77
2022/07/17 00:20:03;;;;;;;2.75;1.83;;;11.70;96.30;;;;;;4974529;28;20520;-76
2022/07/17 00:22:29;;;;;;;3.53;1.67;;;11.70;96.20;;;;;;4974749;28;20227;-76
2022/07/17 00:24:54;;;;;;;2.75;1.70;;;11.70;96.50;;;;;;4973965;28;20197;-76
2022/07/17 00:27:20;;;;;;;3.97;1.70;;;11.70;96.70;;;;;;4973240;28;20254;-76
2022/07/17 00:29:45;;;;;;;3.97;1.88;;;11.70;96.70;;;;;;4973327;28;20173;-76
2022/07/17 00:32:11;;;;;;;3.38;1.60;;;11.70;96.90;;;;;;4974128;28;20188;-76
2022/07/17 00:34:36;;;;;;;3.85;1.65;;;11.70;97.00;;;;;;4974400;28;20197;-76
2022/07/17 00:37:02;;;;;;;4.72;1.75;;;11.60;97.10;;;;;;4974323;28;20230;-76
2022/07/17 00:39:28;;;;;;;3.15;1.55;;;11.60;97.20;;;;;;4973759;28;20180;-76
2022/07/17 00:41:54;;;;;;;4.75;1.77;;;11.60;97.40;;;;;;4973720;28;20177;-76
2022/07/17 00:44:19;;;;;;;6.65;1.60;;;11.50;97.70;;;;;;4973796;28;20195;-76
2022/07/17 00:46:45;;;;;;;3.10;1.55;;;11.50;97.90;;;;;;4973654;28;20550;-76
2022/07/17 00:49:10;;;;;;;5.15;2.13;;;11.40;98.40;;;;;;4973581;28;20180;-76
2022/07/17 00:51:36;;;;;;;2.10;1.60;;;11.20;98.90;;;;;;4973531;28;20188;-76
2022/07/17 00:54:06;;;;;;;2.70;1.52;;;11.20;99.50;;;;;;4973762;28;20272;-76
2022/07/17 00:56:32;;;;;;;3.92;1.52;;;11.20;99.50;;;;;;4973829;28;20235;-76
2022/07/17 00:58:59;;;;;;;4.20;1.70;;;11.20;99.50;;;;;;4975528;28;20227;-76
2022/07/17 01:01:25;;;;;;;3.03;1.55;;;11.20;99.60;;;;;;4975038;28;20216;-76
2022/07/17 01:03:51;;;;;;;3.95;1.63;;;11.10;99.80;;;;;;4975178;28;20173;-76
2022/07/17 01:06:16;;;;;;;3.20;1.70;;;11.00;99.90;;;;;;4975182;28;20269;-76
2022/07/17 01:08:42;;;;;;;3.67;1.92;;;11.00;99.90;;;;;;4974135;28;20181;-76
2022/07/17 01:11:09;;;;;;;4.18;1.70;;;11.00;99.90;;;;;;4974202;28;20187;-76
2022/07/17 01:13:35;;;;;;;5.55;1.80;;;10.90;99.90;;;;;;4974420;28;20180;-76
2022/07/17 01:16:00;;;;;;;7.85;2.15;;;10.90;99.90;;;;;;4974511;28;20675;-76
2022/07/17 01:18:26;;;;;;;5.82;1.88;;;10.80;99.90;;;;;;4973393;28;20555;-76
2022/07/17 01:20:52;;;;;;;3.50;2.03;;;10.80;99.90;;;;;;4973757;28;20181;-76
2022/07/17 01:23:19;;;;;;;4.78;1.95;;;10.80;99.90;;;;;;4973178;28;20667;-76
2022/07/17 01:25:45;;;;;;;2.45;1.73;;;10.60;99.90;;;;;;4972877;28;20270;-76
2022/07/17 01:28:12;;;;;;;2.53;1.67;;;10.40;99.90;;;;;;4972840;28;20180;-76
2022/07/17 01:30:49;;;;;;;3.92;1.67;;;10.40;99.90;;;;;;4973118;28;20250;-76
2022/07/17 01:33:15;;;;;;;3.10;1.88;;;10.50;99.90;;;;;;4972805;28;20176;-76
2022/07/17 01:35:41;;;;;;;5.68;1.60;;;10.40;99.90;;;;;;4973040;28;20269;-76
2022/07/17 01:38:06;;;;;;;5.63;1.55;;;10.50;99.90;;;;;;4974003;28;20177;-76
2022/07/17 01:40:33;;;;;;;4.38;1.73;;;10.40;99.90;;;;;;4973247;28;20189;-76
2022/07/17 01:42:58;;;;;;;2.97;1.70;;;10.60;99.90;;;;;;4974275;28;20198;-76
2022/07/17 01:45:24;;;;;;;2.40;1.77;;;10.60;99.90;;;;;;4972479;28;20280;-76
2022/07/17 01:47:49;;;;;;;1.77;1.35;;;10.60;99.90;;;;;;4972712;28;20268;-76
2022/07/17 01:50:15;;;;;;;2.28;1.58;;;10.60;99.90;;;;;;4972395;28;20674;-76
2022/07/17 01:52:43;;;;;;;3.50;1.73;;;10.50;99.90;;;;;;4972526;28;20181;-76
2022/07/17 01:55:10;;;;;;;3.83;1.80;;;10.40;99.90;;;;;;4972154;28;20292;-76
2022/07/17 01:57:36;;;;;;;2.67;1.85;;;10.20;99.90;;;;;;4973608;28;20255;-76
2022/07/17 02:00:06;;;;;;;3.33;1.50;;;10.20;99.90;;;;;;4973433;28;20654;-76
2022/07/17 02:02:32;;;;;;;3.30;1.75;;;10.10;99.90;;;;;;4972187;28;20173;-76
2022/07/17 02:04:57;;;;;;;3.25;1.40;;;10.00;99.90;;;;;;4972467;28;20200;-76
2022/07/17 02:07:23;;;;;;;2.72;1.58;;;9.90;99.90;;;;;;4973381;28;20227;-76
2022/07/17 02:09:48;;;;;;;2.75;1.60;;;9.90;99.90;;;;;;4972051;28;20185;-76
2022/07/17 02:12:14;;;;;;;5.03;1.67;;;9.90;99.90;;;;;;4973134;28;20548;-76
2022/07/17 02:14:39;;;;;;;2.92;1.63;;;9.90;99.90;;;;;;4972598;28;20216;-76
2022/07/17 02:17:05;;;;;;;3.13;1.80;;;9.90;99.90;;;;;;4971742;28;20204;-76
2022/07/17 02:19:31;;;;;;;3.42;1.80;;;9.80;99.90;;;;;;4972132;28;20256;-76
2022/07/17 02:21:56;;;;;;;3.22;1.67;;;9.70;99.90;;;;;;4971804;28;20540;-76
2022/07/17 02:24:22;;;;;;;4.60;1.65;;;9.60;99.90;;;;;;4972094;28;20181;-76
2022/07/17 02:26:48;;;;;;;2.30;1.45;;;9.50;99.90;;;;;;4971593;28;20208;-76
2022/07/17 02:29:13;;;;;;;3.33;1.70;;;9.50;99.90;;;;;;4971998;28;20187;-76
2022/07/17 02:31:39;;;;;;;2.63;1.70;;;9.40;99.90;;;;;;4970833;28;20177;-76
2022/07/17 02:34:04;;;;;;;3.15;1.70;;;9.60;99.90;;;;;;4972378;28;20184;-76
2022/07/17 02:36:30;;;;;;;8.27;1.92;;;9.50;99.90;;;;;;4971656;28;20208;-76
2022/07/17 02:38:56;;;;;;;2.00;1.50;;;9.50;99.90;;;;;;4971525;28;20263;-76
2022/07/17 02:41:21;;;;;;;3.13;1.83;;;9.40;99.90;;;;;;4971725;28;20319;-76
2022/07/17 02:43:47;;;;;;;4.47;1.60;;;9.40;99.90;;;;;;4971811;28;20180;-76
2022/07/17 02:46:15;;;;;;;2.60;1.55;;;9.40;99.90;;;;;;4972629;28;20200;-76
2022/07/17 02:49:30;;;;;;;2.88;1.40;;;9.40;99.90;;;;;;4971360;28;20264;-76
2022/07/17 02:51:55;;;;;;;1.60;1.45;;;9.30;99.90;;;;;;4972930;28;20196;-76
2022/07/17 02:54:21;;;;;;;3.03;1.50;;;9.30;99.90;;;;;;4971305;28;20204;-76
2022/07/17 02:56:47;;;;;;;3.78;1.52;;;9.40;99.90;;;;;;4971144;28;20322;-76
2022/07/17 02:59:12;;;;;;;4.47;1.75;;;9.40;99.90;;;;;;4971153;28;20192;-76
2022/07/17 03:01:38;;;;;;;2.53;1.58;;;9.50;99.90;;;;;;4972271;28;20252;-76
2022/07/17 03:04:03;;;;;;;3.30;1.58;;;9.60;99.90;;;;;;4972365;28;20173;-76
2022/07/17 03:06:29;;;;;;;3.42;1.75;;;9.60;99.90;;;;;;4971242;28;20176;-76
2022/07/17 03:08:55;;;;;;;4.07;1.50;;;9.60;99.90;;;;;;4972341;28;20192;-76
2022/07/17 03:11:20;;;;;;;3.53;1.80;;;9.60;99.90;;;;;;4972340;28;20184;-76
2022/07/17 03:13:46;;;;;;;1.98;1.58;;;9.50;99.90;;;;;;4971253;28;20185;-76
2022/07/17 03:16:11;;;;;;;3.17;1.92;;;9.50;99.90;;;;;;4970862;28;20217;-76
2022/07/17 03:18:37;;;;;;;2.75;1.60;;;9.50;99.90;;;;;;4972051;28;20169;-76
2022/07/17 03:21:03;;;;;;;3.40;2.03;;;9.50;99.90;;;;;;4971023;28;20302;-76
2022/07/17 03:23:29;;;;;;;3.20;1.77;;;9.40;99.90;;;;;;4972081;28;20181;-76
2022/07/17 03:25:54;;;;;;;3.45;1.67;;;9.40;99.90;;;;;;4970853;28;20602;-76
2022/07/17 03:28:20;;;;;;;3.53;1.60;;;9.30;99.90;;;;;;4970740;28;20263;-76
2022/07/17 03:30:45;;;;;;;4.10;1.92;;;9.30;99.90;;;;;;4970793;28;20549;-76
2022/07/17 03:33:11;;;;;;;4.18;1.70;;;9.30;99.90;;;;;;4971319;28;20185;-76
2022/07/17 03:35:36;;;;;;;5.45;2.00;;;9.30;99.90;;;;;;4970598;28;20262;-76
2022/07/17 03:38:02;;;;;;;2.25;1.65;;;9.40;99.90;;;;;;4972134;28;20639;-76
2022/07/17 03:40:27;;;;;;;4.35;1.70;;;9.40;99.90;;;;;;4971842;28;20242;-76
2022/07/17 03:42:53;;;;;;;2.20;1.52;;;9.40;99.90;;;;;;4974168;28;20169;-76
2022/07/17 03:45:19;;;;;;;3.78;1.55;;;9.30;99.90;;;;;;4973952;28;20197;-76
2022/07/17 03:47:44;;;;;;;1.98;1.63;;;9.30;99.90;;;;;;4974488;28;20181;-76
2022/07/17 03:50:10;;;;;;;3.08;1.80;;;9.30;99.90;;;;;;4974500;28;20212;-76
2022/07/17 03:52:35;;;;;;;5.90;1.70;;;9.10;99.90;;;;;;4975298;28;20675;-76
2022/07/17 03:55:01;;;;;;;2.28;1.45;;;9.10;99.90;;;;;;4975216;28;20189;-76
2022/07/17 03:57:27;;;;;;;2.95;1.70;;;9.10;99.90;;;;;;4974153;28;20292;-76
2022/07/17 03:59:52;;;;;;;3.05;1.98;;;9.00;99.90;;;;;;4974335;28;20209;-76
2022/07/17 04:02:18;;;;;;;3.58;1.90;;;9.10;99.90;;;;;;4974038;28;20182;-76
2022/07/17 04:04:43;;;;;;;2.17;1.45;;;9.00;99.90;;;;;;4974018;28;20197;-76
2022/07/17 04:07:26;;;;;;;2.83;1.63;;;8.90;99.90;;;;;;4974059;28;20199;-76
2022/07/17 04:09:53;;;;;;;2.33;1.70;;;9.10;99.90;;;;;;4975390;28;20165;-76
2022/07/17 04:12:18;;;;;;;2.40;1.80;;;9.10;99.90;;;;;;4975345;28;20192;-76
2022/07/17 04:14:44;;;;;;;3.50;1.80;;;9.10;99.90;;;;;;4973931;28;20242;-76
2022/07/17 04:17:09;;;;;;;2.60;1.60;;;9.20;99.90;;;;;;4973790;28;20262;-76
2022/07/17 04:19:35;;;;;;;6.22;1.92;;;9.40;99.90;;;;;;4973839;28;20208;-76
2022/07/17 04:22:00;;;;;;;3.53;1.85;;;9.50;99.90;;;;;;4973732;28;20196;-76
2022/07/17 04:24:26;;;;;;;3.38;1.95;;;9.60;99.90;;;;;;4973429;28;20203;-76
2022/07/17 04:26:51;;;;;;;3.03;1.88;;;9.70;99.90;;;;;;4975365;28;20193;-76
2022/07/17 04:29:17;;;;;;;1.80;1.70;;;9.70;99.90;;;;;;4974020;28;20177;-76
2022/07/17 04:31:42;;;;;;;1.75;1.65;;;9.80;99.90;;;;;;4973572;28;20235;-76
2022/07/17 04:34:08;;;;;;;1.73;1.63;;;10.00;99.90;;;;;;4973492;28;20188;-76
2022/07/17 04:36:35;;;;;;;4.88;1.95;;;10.00;99.90;;;;;;4974519;28;20205;-76
2022/07/17 04:39:00;;;;;;;3.63;1.80;;;10.20;99.90;;;;;;4974757;28;20174;-76
2022/07/17 04:41:26;;;;;;;3.50;1.90;;;10.30;99.90;;;;;;4973226;28;20196;-76
2022/07/17 04:43:52;;;;;;;3.00;1.65;;;10.50;99.90;;;;;;4974307;28;20212;-76
2022/07/17 04:46:17;;;;;;;2.80;1.48;;;10.60;99.90;;;;;;4974354;28;20250;-76
2022/07/17 04:48:43;;;;;;;2.88;1.60;;;10.70;99.90;;;;;;4973141;28;20189;-76
2022/07/17 04:51:08;;;;;;;4.00;2.00;;;10.80;99.90;;;;;;4974504;28;20189;-76
2022/07/17 04:53:35;;;;;;;2.85;1.85;;;10.90;99.90;;;;;;4973615;28;20184;-76
2022/07/17 04:56:01;;;;;;;3.42;1.90;;;11.10;99.90;;;;;;4973379;28;20303;-76
2022/07/17 04:58:26;;;;;;;3.35;1.67;;;11.10;99.90;;;;;;4974053;28;20197;-76
2022/07/17 05:00:52;;;;;;;5.47;2.13;;;11.10;99.90;;;;;;4974118;28;20181;-76
2022/07/17 05:03:17;;;;;;;4.70;1.80;;;11.10;99.90;;;;;;4974386;28;20212;-76
2022/07/17 05:05:43;;;;;;;5.35;1.67;;;11.10;99.90;;;;;;4973079;28;20192;-76
2022/07/17 05:08:08;;;;;;;2.30;1.52;;;11.30;99.90;;;;;;4972948;28;20272;-76
2022/07/17 05:10:34;;;;;;;12.15;2.40;;;11.50;99.90;;;;;;4974410;28;20335;-76
2022/07/17 05:13:00;;;;;;;7.07;1.75;;;11.70;99.90;;;;;;4974468;28;20188;-77
2022/07/17 05:15:25;;;;;;;6.68;1.58;;;12.00;99.90;;;;;;4972816;28;20204;-77
2022/07/17 05:17:51;;;;;;;1.50;1.40;;;12.20;99.90;;;;;;4972993;28;20271;-77
2022/07/17 05:20:16;;;;;;;3.75;1.67;;;12.40;99.90;;;;;;4973227;28;20180;-77
2022/07/17 05:22:42;;;;;;;6.72;1.77;;;12.40;99.90;;;;;;4973108;28;20266;-76
2022/07/17 05:25:33;;;;;;;2.53;1.60;;;12.60;99.90;;;;;;4973200;28;20254;-76
2022/07/17 05:27:59;;;;;;;5.00;1.73;;;12.70;99.90;;;;;;4972556;28;20201;-77
2022/07/17 05:30:25;;;;;;;2.88;1.70;;;12.80;99.90;;;;;;4973491;28;20642;-76
2022/07/17 05:32:50;;;;;;;5.80;1.65;;;13.00;99.90;;;;;;4974018;28;20177;-76
2022/07/17 05:35:16;;;;;;;5.82;1.92;;;13.10;99.90;;;;;;4972351;28;20208;-76
2022/07/17 05:38:09;;;;;;;3.85;1.75;;;13.10;99.90;;;;;;4972720;28;20196;-76
2022/07/17 05:40:34;;;;;;;3.63;2.08;;;13.30;99.90;;;;;;4973923;28;20162;-76
2022/07/17 05:43:00;;;;;;;3.15;1.63;;;13.60;99.90;;;;;;4974155;28;20601;-76
2022/07/17 05:45:25;;;;;;;6.82;1.88;;;13.70;99.90;;;;;;4974575;28;20204;-76
2022/07/17 05:47:51;;;;;;;6.38;1.80;;;13.80;99.90;;;;;;4973673;28;20238;-77
2022/07/17 05:50:17;;;;;;;3.50;1.52;;;13.90;99.90;;;;;;4973925;28;20644;-77
2022/07/17 05:52:42;;;;;;;2.40;1.70;;;14.00;99.90;;;;;;4973859;28;20174;-77
2022/07/17 05:55:09;;;;;;;4.18;1.92;;;14.10;99.90;;;;;;4973944;28;20283;-77
2022/07/17 05:57:34;;;;;;;2.55;1.77;;;14.20;99.90;;;;;;4972783;28;20197;-77
2022/07/17 06:00:00;;;;;;;3.72;1.60;;;14.30;99.90;;;;;;4973307;28;20177;-77
2022/07/17 06:02:51;;;;;;;3.30;1.60;;;14.50;99.90;;;;;;4974090;28;20181;-77
2022/07/17 06:05:18;;;;;;;5.43;2.03;;;14.80;99.90;;;;;;4971269;28;20201;-77
2022/07/17 06:08:02;;;;;;;2.38;1.80;;;15.00;99.90;;;;;;4972158;28;20169;-77
2022/07/17 06:10:30;;;;;;;5.40;2.10;;;15.10;99.90;;;;;;4973898;28;20173;-77
2022/07/17 06:13:04;;;;;;;2.38;1.55;;;15.30;99.90;;;;;;4974541;28;20527;-77
2022/07/17 06:15:30;;;;;;;5.20;1.85;;;15.50;99.90;;;;;;4973895;28;20196;-77
2022/07/17 06:18:00;;;;;;;5.15;1.58;;;15.70;99.90;;;;;;4972659;28;20174;-77
2022/07/17 06:20:26;;;;;;;4.93;1.70;;;16.00;99.90;;;;;;4972584;28;20169;-77
2022/07/17 06:22:52;;;;;;;4.32;1.85;;;16.20;99.90;;;;;;4972434;28;20183;-77
2022/07/17 06:25:18;;;;;;;6.85;1.65;;;16.30;99.80;;;;;;4971974;28;20193;-76
2022/07/17 06:27:43;;;;;;;5.15;2.10;;;16.60;97.00;;;;;;4971780;28;20196;-76
2022/07/17 06:30:35;;;;;;;6.22;1.70;;;16.80;94.80;;;;;;4972027;28;20588;-77
2022/07/17 06:33:05;;;;;;;7.43;1.60;;;17.00;92.30;;;;;;4972149;28;20169;-76
2022/07/17 06:35:35;;;;;;;3.88;1.83;;;17.40;91.80;;;;;;4972531;28;20197;-77
2022/07/17 06:38:02;;;;;;;7.45;2.03;;;17.90;91.50;;;;;;4972277;28;20214;-77
2022/07/17 06:40:28;;;;;;;5.25;1.80;;;19.00;89.50;;;;;;4971923;28;20184;-77
2022/07/17 06:42:54;;;;;;;4.47;1.85;;;19.80;86.80;;;;;;4971963;28;20178;-77
2022/07/17 06:45:19;;;;;;;3.50;1.60;;;20.60;79.00;;;;;;4972123;28;20205;-77
2022/07/17 06:47:45;;;;;;;3.78;1.70;;;21.30;74.50;;;;;;4972655;28;20280;-77
2022/07/17 06:50:11;;;;;;;4.05;1.52;;;22.00;65.70;;;;;;4971853;28;20177;-77
2022/07/17 06:52:37;;;;;;;4.57;1.67;;;22.00;66.10;;;;;;4971929;28;20188;-77
2022/07/17 06:55:03;;;;;;;4.55;1.75;;;22.10;62.70;;;;;;4972407;28;20204;-77
2022/07/17 06:57:28;;;;;;;5.97;1.92;;;22.00;66.10;;;;;;4971731;28;20308;-77
2022/07/17 06:59:54;;;;;;;3.95;1.52;;;21.70;61.80;;;;;;4973860;28;20180;-76
2022/07/17 07:02:19;;;;;;;5.90;1.77;;;21.10;59.20;;;;;;4971715;28;20188;-76
2022/07/17 07:04:45;;;;;;;3.88;1.55;;;20.50;61.50;;;;;;4971772;28;20271;-76
2022/07/17 07:07:11;;;;;;;4.40;1.63;;;20.20;65.80;;;;;;4972634;28;20250;-77
2022/07/17 07:09:37;;;;;;;4.60;1.60;;;19.90;65.40;;;;;;4971595;28;20693;-77
2022/07/17 07:15:14;;;;;;;3.72;1.73;;;19.30;64.60;;;;;;4972884;28;20201;-78
2022/07/17 07:17:55;;;;;;;9.07;1.90;;;19.10;64.00;;;;;;4970703;28;20220;-77
2022/07/17 07:20:21;;;;;;;5.18;1.70;;;19.00;64.40;;;;;;4972016;28;20173;-77
2022/07/17 07:22:47;;;;;;;4.30;1.40;;;19.00;63.50;;;;;;4972794;28;20200;-77
2022/07/17 07:28:42;;;;;;;3.22;1.58;;;19.00;65.80;;;;;;4972719;28;20664;-77
2022/07/17 07:31:08;;;;;;;4.28;1.52;;;19.00;65.10;;;;;;4973043;28;20213;-77
2022/07/17 07:33:33;;;;;;;3.72;1.30;;;19.10;65.30;;;;;;4973129;28;20173;-77
2022/07/17 07:35:59;;;;;;;5.03;1.35;;;19.30;64.70;;;;;;4971666;28;20223;-76
2022/07/17 07:38:25;;;;;;;5.07;1.75;;;19.30;65.50;;;;;;4972759;28;20705;-76
2022/07/17 07:40:51;;;;;;;6.00;1.90;;;19.30;63.00;;;;;;4972574;28;20177;-76
2022/07/17 07:43:16;;;;;;;4.85;1.50;;;19.30;64.70;;;;;;4972628;28;20283;-76
2022/07/17 07:45:42;;;;;;;3.53;1.45;;;19.20;64.10;;;;;;4971557;28;20212;-76
2022/07/17 07:48:08;;;;;;;4.05;1.50;;;19.30;64.00;;;;;;4972109;28;20181;-76
2022/07/17 07:50:35;;;;;;;2.17;1.23;;;19.40;63.90;;;;;;4973043;28;20177;-76
2022/07/17 07:53:01;;;;;;;5.47;1.50;;;19.50;61.90;;;;;;4972310;28;20250;-76
2022/07/17 07:55:26;;;;;;;3.80;1.55;;;19.60;63.80;;;;;;4972622;28;20557;-77
2022/07/17 07:58:10;;;;;;;3.35;1.70;;;19.60;61.40;;;;;;4972860;28;20173;-77
2022/07/17 08:00:37;;;;;;;4.85;1.55;;;19.70;62.80;;;;;;4972620;28;20177;-77
2022/07/17 08:03:03;;;;;;;3.33;1.35;;;19.90;63.70;;;;;;4972082;28;20255;-77
2022/07/17 08:05:29;;;;;;;3.72;1.55;;;20.00;61.70;;;;;;4971733;28;20193;-77
2022/07/17 08:07:55;;;;;;;4.13;1.50;;;20.00;60.80;;;;;;4971269;28;20181;-77
2022/07/17 08:10:20;;;;;;;4.10;1.35;;;19.90;59.70;;;;;;4971023;28;20185;-77
2022/07/17 08:12:46;;;;;;;4.03;1.60;;;20.00;60.50;;;;;;4972742;28;20670;-77
2022/07/17 08:15:16;;;;;;;5.30;1.80;;;20.10;60.10;;;;;;4972574;28;20565;-77
2022/07/17 08:17:42;;;;;;;5.65;1.55;;;20.10;59.10;;;;;;4971624;28;20208;-77
2022/07/17 08:20:09;;;;;;;8.05;1.63;;;20.00;58.40;;;;;;4970852;28;20196;-76
2022/07/17 08:22:34;;;;;;;7.90;1.60;;;19.90;59.00;;;;;;4973190;28;20192;-77
2022/07/17 08:25:00;;;;;;;4.03;1.40;;;20.00;59.20;;;;;;4971481;28;20193;-77
2022/07/17 08:27:26;;;;;;;2.75;1.30;;;20.20;59.20;;;;;;4971412;28;20277;-77
2022/07/17 08:29:51;;;;;;;5.93;1.77;;;20.20;58.40;;;;;;4973128;28;20189;-77
2022/07/17 08:32:17;;;;;;;4.00;1.48;;;20.30;58.30;;;;;;4975335;28;20181;-78
2022/07/17 08:34:42;;;;;;;5.18;1.90;;;20.40;57.60;;;;;;4973970;28;20216;-77
2022/07/17 08:37:08;;;;;;;4.90;1.52;;;20.40;59.10;;;;;;4974417;28;20204;-77
2022/07/17 08:39:33;;;;;;;2.45;1.52;;;20.50;57.70;;;;;;4973908;28;20636;-77
2022/07/17 08:42:02;;;;;;;7.07;1.60;;;20.70;57.80;;;;;;4974251;28;20690;-76
2022/07/17 08:44:28;;;;;;;3.88;1.60;;;20.70;56.80;;;;;;4974447;28;20208;-77
2022/07/17 08:46:55;;;;;;;5.30;1.50;;;20.90;57.40;;;;;;4975174;28;20177;-77
2022/07/17 08:49:24;;;;;;;6.43;1.60;;;21.20;57.30;;;;;;4974774;28;20260;-77
2022/07/17 08:51:50;;;;;;;4.97;1.50;;;21.20;56.40;;;;;;4973819;28;20268;-77
2022/07/17 08:54:16;;;;;;;3.67;1.60;;;21.30;55.50;;;;;;4974735;28;20322;-77
2022/07/17 08:56:41;;;;;;;3.97;1.50;;;21.20;54.70;;;;;;4974209;28;20197;-77
2022/07/17 08:59:07;;;;;;;3.42;1.70;;;21.30;55.10;;;;;;4975382;28;20165;-77
2022/07/17 09:01:33;;;;;;;3.78;1.80;;;21.30;55.30;;;;;;4974475;28;20276;-81
2022/07/17 09:04:06;;;;;;;4.95;1.55;;;21.50;55.50;;;;;;4973509;28;20185;-76
2022/07/17 09:06:39;;;;;;;4.95;1.55;;;21.70;54.00;;;;;;4974120;28;20215;-77
2022/07/17 09:09:10;;;;;;;3.15;1.70;;;21.60;52.40;;;;;;4973462;28;20667;-77
2022/07/17 09:11:47;;;;;;;3.42;1.40;;;21.50;52.30;;;;;;4973314;28;20184;-77
2022/07/17 09:14:13;;;;;;;2.97;1.50;;;21.40;52.00;;;;;;4973986;28;20196;-77
2022/07/17 09:16:54;;;;;;;4.18;1.35;;;21.40;52.80;;;;;;4973489;28;20212;-76
2022/07/17 09:19:37;;;;;;;2.00;1.42;;;21.30;52.40;;;;;;4973036;28;20263;-76
2022/07/17 09:22:07;;;;;;;3.70;1.50;;;21.20;52.40;;;;;;4973707;28;20173;-76
2022/07/17 09:24:48;;;;;;;4.70;1.40;;;21.10;52.70;;;;;;4973265;28;20201;-76
2022/07/17 09:27:35;;;;;;;2.13;1.42;;;21.20;52.40;;;;;;4972973;28;20727;-76
2022/07/17 09:30:04;;;;;;;5.13;1.25;;;21.30;49.80;;;;;;4972104;28;20189;-76
2022/07/17 09:32:35;;;;;;;3.53;1.65;;;21.50;49.60;;;;;;4972423;28;20573;-76
2022/07/17 09:35:03;;;;;;;4.15;1.65;;;21.70;49.20;;;;;;4973518;28;20196;-76
2022/07/17 09:37:30;;;;;;;5.03;1.30;;;21.80;50.20;;;;;;4972438;28;20205;-76
2022/07/17 09:39:57;;;;;;;2.35;1.45;;;21.90;49.80;;;;;;4973996;28;20181;-76
2022/07/17 09:42:27;;;;;;;3.58;1.38;;;22.00;48.90;;;;;;4972416;28;20242;-76
2022/07/17 09:45:08;;;;;;;3.13;1.50;;;22.10;48.50;;;;;;4972373;28;20281;-75
2022/07/17 09:47:38;;;;;;;3.90;1.70;;;22.10;48.00;;;;;;4972207;28;20181;-76
2022/07/17 09:50:06;;;;;;;3.30;1.42;;;22.20;47.70;;;;;;4972479;28;20181;-76
2022/07/17 09:52:37;;;;;;;2.15;1.52;;;22.30;47.00;;;;;;4972079;28;20177;-76
2022/07/17 09:55:05;;;;;;;1.85;1.25;;;22.30;47.20;;;;;;4973579;28;20207;-76
2022/07/17 09:57:33;;;;;;;2.70;1.30;;;22.40;46.10;;;;;;4957596;28;20200;-75
2022/07/17 10:00:12;;;;;;;3.47;1.60;;;22.60;46.10;;;;;;4972448;28;20201;-76
2022/07/17 10:02:42;;;;;;;4.22;1.88;;;22.70;45.40;;;;;;4972012;28;20643;-76
2022/07/17 10:05:15;;;;;;;4.60;2.05;;;22.80;44.50;;;;;;4971857;28;20209;-76
2022/07/17 10:07:47;;;;;;;5.07;2.50;;;22.80;43.90;;;;;;4972600;28;20279;-76
2022/07/17 10:10:15;;;;;;;2.22;1.55;;;22.90;44.00;;;;;;4973214;28;20620;-76
2022/07/17 10:12:43;;;;;;;5.68;2.00;;;22.80;42.50;;;;;;4971715;28;20184;-76
2022/07/17 10:15:10;;;;;;;3.80;2.17;;;23.00;43.50;;;;;;4971551;28;20205;-76
2022/07/17 10:17:36;;;;;;;7.07;1.80;;;23.00;43.30;;;;;;4971565;28;20232;-76
2022/07/17 10:20:04;;;;;;;2.92;1.73;;;23.00;43.30;;;;;;4955662;28;20185;-76
2022/07/17 10:22:45;;;;;;;1.48;1.25;;;23.10;44.30;;;;;;4971556;28;20227;-76
2022/07/17 10:25:15;;;;;;;3.28;1.38;;;23.10;42.90;;;;;;4972090;28;20204;-77
2022/07/17 10:27:55;;;;;;;17.30;8.65;;;23.20;43.30;;;;;;4971475;28;20722;-76
2022/07/17 10:30:26;;;;;;;4.35;2.60;;;23.00;42.90;;;;;;4972607;28;20189;-76
2022/07/17 10:32:58;;;;;;;1.90;1.50;;;23.00;41.60;;;;;;4971467;28;20173;-76
2022/07/17 10:35:24;;;;;;;6.60;4.25;;;23.00;41.50;;;;;;4972524;28;20239;-76
2022/07/17 10:37:50;;;;;;;10.60;2.40;;;23.00;41.40;;;;;;4972112;28;20244;-76
2022/07/17 10:40:20;;;;;;;3.00;1.73;;;23.00;42.20;;;;;;4971306;28;20219;-76
2022/07/17 10:43:01;;;;;;;5.28;1.70;;;23.20;42.50;;;;;;4971244;28;20659;-76
2022/07/17 10:45:35;;;;;;;4.22;1.50;;;23.30;40.80;;;;;;4971647;28;20192;-76
2022/07/17 10:48:02;;;;;;;2.75;1.60;;;23.30;40.40;;;;;;4971475;28;20180;-76
2022/07/17 10:50:38;;;;;;;1.83;1.52;;;23.30;40.70;;;;;;4971862;28;20173;-76
2022/07/17 10:53:17;;;;;;;1.52;1.25;;;23.30;41.30;;;;;;4970436;28;20179;-76
2022/07/17 10:55:45;;;;;;;2.70;1.30;;;23.40;39.30;;;;;;4973160;28;20204;-76
2022/07/17 10:58:15;;;;;;;3.45;1.60;;;23.60;39.40;;;;;;4971113;28;20196;-76
2022/07/17 11:00:41;;;;;;;4.32;1.85;;;23.60;39.40;;;;;;4972141;28;20224;-76
2022/07/17 11:03:13;;;;;;;2.97;1.63;;;23.80;40.10;;;;;;4970928;28;20213;-76
2022/07/17 11:05:39;;;;;;;1.67;1.20;;;23.80;39.80;;;;;;4972094;28;20204;-76
2022/07/17 11:08:09;;;;;;;2.00;1.50;;;23.80;40.50;;;;;;4970866;28;20183;-76
2022/07/17 11:10:37;;;;;;;2.22;1.10;;;24.00;40.50;;;;;;4970887;28;20173;-76
2022/07/17 11:13:15;;;;;;;2.38;1.40;;;24.10;40.50;;;;;;4971030;28;20181;-76
2022/07/17 11:15:47;;;;;;;6.03;1.38;;;24.10;39.20;;;;;;4970778;28;20204;-77
2022/07/17 11:18:23;;;;;;;1.30;1.13;;;24.20;39.90;;;;;;4971696;28;20181;-77
2022/07/17 11:20:57;;;;;;;2.10;1.33;;;24.20;39.60;;;;;;4973830;28;20204;-77
2022/07/17 11:23:25;;;;;;;3.45;1.35;;;24.30;38.90;;;;;;4973599;28;20165;-77
2022/07/17 11:25:59;;;;;;;3.40;1.42;;;24.10;38.70;;;;;;4972184;28;20208;-77
2022/07/17 11:28:39;;;;;;;3.03;1.65;;;24.10;38.70;;;;;;4971562;28;20279;-76
2022/07/17 11:31:22;;;;;;;2.75;1.50;;;24.20;39.90;;;;;;4971078;28;20230;-77
2022/07/17 11:33:55;;;;;;;4.15;1.40;;;24.10;38.80;;;;;;4971405;28;20185;-76
2022/07/17 11:36:33;;;;;;;2.75;1.38;;;24.10;40.00;;;;;;4970719;28;20743;-76
2022/07/17 11:39:04;;;;;;;2.10;1.40;;;24.10;39.40;;;;;;4971011;28;20782;-76
2022/07/17 11:41:46;;;;;;;1.30;1.20;;;24.00;39.20;;;;;;4971760;28;20609;-76
2022/07/17 11:44:13;;;;;;;2.95;1.40;;;24.10;40.90;;;;;;4971442;28;20164;-77
2022/07/17 11:46:41;;;;;;;2.95;1.40;;;24.20;39.30;;;;;;4970567;28;20184;-77
2022/07/17 11:49:08;;;;;;;4.45;1.38;;;24.30;38.90;;;;;;4970456;28;20187;-76
2022/07/17 11:51:39;;;;;;;3.20;1.38;;;24.40;38.10;;;;;;4971083;28;20227;-76
2022/07/17 11:54:07;;;;;;;2.28;1.23;;;24.50;38.60;;;;;;4971989;28;20169;-76
2022/07/17 11:56:34;;;;;;;2.75;1.42;;;24.70;37.60;;;;;;4971554;28;20208;-76
2022/07/17 11:59:00;;;;;;;2.30;1.40;;;24.70;38.60;;;;;;4970369;28;20196;-76
2022/07/17 12:01:30;;;;;;;2.08;1.42;;;24.60;37.50;;;;;;4972108;28;20527;-76
2022/07/17 12:03:59;;;;;;;3.67;1.48;;;24.50;37.70;;;;;;4972585;28;20172;-76
2022/07/17 12:06:26;;;;;;;2.92;1.45;;;24.60;37.30;;;;;;4974016;28;20258;-76
2022/07/17 12:08:53;;;;;;;2.22;1.40;;;24.60;37.60;;;;;;4973746;28;20189;-76
2022/07/17 12:11:19;;;;;;;1.55;1.42;;;24.70;38.30;;;;;;4974073;28;20256;-76
2022/07/17 12:13:46;;;;;;;2.80;1.10;;;24.80;37.20;;;;;;4974265;28;20203;-76
2022/07/17 12:16:23;;;;;;;5.65;1.60;;;24.70;36.10;;;;;;4975185;28;20209;-76
2022/07/17 12:19:01;;;;;;;2.65;1.30;;;24.80;36.60;;;;;;4975570;28;20173;-76
2022/07/17 12:21:28;;;;;;;1.52;1.42;;;24.90;37.20;;;;;;4976236;28;20154;-76
2022/07/17 12:24:03;;;;;;;1.83;1.25;;;25.00;36.70;;;;;;4976574;28;20169;-76
2022/07/17 12:26:29;;;;;;;2.33;1.45;;;25.10;35.60;;;;;;4974021;28;20559;-77
2022/07/17 12:28:55;;;;;;;2.40;1.23;;;25.00;35.30;;;;;;4975550;28;20200;-76
2022/07/17 12:31:23;;;;;;;1.65;1.25;;;25.00;35.10;;;;;;4973742;28;20173;-77
2022/07/17 12:33:50;;;;;;;1.55;1.30;;;24.90;35.80;;;;;;4973436;28;20209;-76
2022/07/17 12:36:15;;;;;;;2.22;1.35;;;24.90;35.80;;;;;;4973133;28;20684;-77
2022/07/17 12:38:41;;;;;;;1.42;1.13;;;25.00;35.20;;;;;;4974881;28;20177;-77
2022/07/17 12:41:06;;;;;;;2.30;1.45;;;24.90;34.40;;;;;;4973466;28;20632;-77
2022/07/17 12:43:32;;;;;;;1.92;1.30;;;25.00;35.50;;;;;;4973266;28;20184;-76
2022/07/17 12:45:58;;;;;;;2.42;1.48;;;25.10;35.70;;;;;;4973087;28;20213;-76
2022/07/17 12:48:23;;;;;;;3.08;1.60;;;25.20;36.30;;;;;;4973078;28;20184;-76
2022/07/17 12:50:49;;;;;;;1.73;1.38;;;25.30;35.60;;;;;;4973039;28;20184;-76
2022/07/17 12:53:14;;;;;;;1.75;1.42;;;25.20;35.00;;;;;;4972845;28;20189;-77
2022/07/17 12:55:40;;;;;;;1.30;1.20;;;25.30;34.90;;;;;;4972911;28;20207;-76
2022/07/17 12:58:09;;;;;;;2.55;1.40;;;25.30;35.00;;;;;;4973759;28;20259;-76
2022/07/17 13:00:34;;;;;;;2.22;1.42;;;25.30;35.20;;;;;;4972797;28;20226;-76